Decoded Metar for KMOB (MOBILE in AL, USA) (IATA:MOB) | Meteo·Mobile Aviation Weather
aviador You're here:

KMOB Decoded Metar

MOBILE in AL, USA
Report Time2018-12-11 08:56:00
UTC Time2018-12-11 09:15:18
Flight Rules vfr VFR
Wind330° at 03 kt
W.Decomp.*RWY 32: 2.9 kt HW 0.6 kt RCW
RWY 36: 2.6 kt HW 1.5 kt LCW
W.Rank330° ranks 20
Current wind is below 330° avg. (6.8)
Visibility9999 m
Phenomena:N/A
Clouds:Scattered 024 Hf
Expected CloudBase > 800 ft AGL from Temp-Dew spread
CeilingNone
Temp05°C (ISA -10)
Dew Point03°C (87% RH)
AAT2.4°C
QNH1027 hPa
Density Alt-1,322 ft
Elevation207 ft
Report Wrong Elevation
Raw Report
METAR KMOB 110856Z AUTO 33003KT 10SM SCT024 05/03 A3034 RMK AO2 SLP274
T00500033 50002=

Extra information for KMOB:More info

Metar Taf Metar & Taf Last 4 Metars F.Rules Stats Wind Profile Meteogram Temp Stats Airport Information Weather charts Add Link Nearby VenuesMetar ALERT Operation Metar Decoded Social comments

AIRNAV info for KMOB